YG9083 RJNS-ZSFZ
Flight info
| Callsign | YG9083 |
|---|---|
| Flight time | N/A |
| Altitude | 36000 |
| Route | DCT |
| Aircraft | B763/H-SDE3FGHIM3RWXY/LB1 |
Departure
| Time | 2026-04-22 02:24 |
|---|---|
| Airport | Mount Fuji Shizuoka Airport (RJNS) |
Arrival
| Time | N/A |
|---|---|
| Airport | Fuzhou Changle International Airport (ZSFZ) |
| Time | Latitude | Longitude | Altitude | Speed | Heading |
|---|---|---|---|---|---|
| 2026-04-22 02:07 | 34.79695 | 138.17854 | 475 ft | 0 kts | 111° |
| 2026-04-22 02:20 | 34.79695 | 138.17856 | 475 ft | 1 kts | 111° |
| 2026-04-22 02:21 | 34.79695 | 138.17874 | 474 ft | 2 kts | 70° |
| 2026-04-22 02:21 | 34.79745 | 138.17882 | 471 ft | 14 kts | 336° |
| 2026-04-22 02:21 | 34.79807 | 138.17784 | 472 ft | 13 kts | 294° |
| 2026-04-22 02:21 | 34.79839 | 138.17699 | 475 ft | 9 kts | 297° |
| 2026-04-22 02:22 | 34.79877 | 138.17647 | 475 ft | 7 kts | 330° |
| 2026-04-22 02:22 | 34.79935 | 138.17642 | 470 ft | 12 kts | 14° |
| 2026-04-22 02:22 | 34.80008 | 138.17747 | 454 ft | 21 kts | 90° |
| 2026-04-22 02:22 | 34.79951 | 138.17908 | 452 ft | 19 kts | 114° |
| 2026-04-22 02:23 | 34.79845 | 138.18214 | 452 ft | 68 kts | 112° |
| 2026-04-22 02:23 | 34.79586 | 138.18982 | 425 ft | 128 kts | 112° |
| 2026-04-22 02:23 | 34.79172 | 138.20189 | 469 ft | 175 kts | 112° |
| 2026-04-22 02:23 | 34.78676 | 138.21631 | 845 ft | 190 kts | 114° |
| 2026-04-22 02:24 | 34.78047 | 138.23099 | 1244 ft | 206 kts | 119° |
| 2026-04-22 02:24 | 34.77293 | 138.24710 | 1546 ft | 228 kts | 118° |
| 2026-04-22 02:24 | 34.76473 | 138.26453 | 1970 ft | 247 kts | 119° |
| 2026-04-22 02:24 | 34.75565 | 138.28358 | 2406 ft | 279 kts | 120° |
| 2026-04-22 02:25 | 34.74540 | 138.30542 | 2848 ft | 314 kts | 120° |
| 2026-04-22 02:25 | 34.73222 | 138.32829 | 3280 ft | 339 kts | 133° |
| 2026-04-22 02:25 | 34.71514 | 138.34557 | 3607 ft | 309 kts | 151° |
| 2026-04-22 02:25 | 34.69631 | 138.35632 | 3951 ft | 288 kts | 154° |